createdAt,value
2022-10-23T00:01:22.795Z,17.98
2022-10-23T00:03:59.016Z,13.93
2022-10-23T00:06:26.483Z,17.55
2022-10-23T00:08:53.299Z,19.30
2022-10-23T00:11:23.844Z,17.17
2022-10-23T00:13:53.611Z,17.38
2022-10-23T00:16:20.283Z,19.63
2022-10-23T00:18:47.055Z,17.92
2022-10-23T00:21:15.523Z,20.27
2022-10-23T00:23:42.576Z,17.25
2022-10-23T00:26:09.992Z,15.88
2022-10-23T00:28:37.412Z,20.95
2022-10-23T00:31:05.479Z,17.88
2022-10-23T00:33:32.758Z,20.20
2022-10-23T00:36:00.648Z,19.45
2022-10-23T00:38:27.322Z,18.02
2022-10-23T00:40:54.713Z,18.67
2022-10-23T00:43:27.981Z,22.70
2022-10-23T00:45:56.427Z,24.10
2022-10-23T00:48:27.267Z,14.77
2022-10-23T00:50:55.651Z,14.77
2022-10-23T00:53:25.762Z,14.05
2022-10-23T00:55:53.725Z,19.85
2022-10-23T00:58:29.057Z,21.77
2022-10-23T01:00:57.451Z,17.52
2022-10-23T01:03:27.620Z,15.85
2022-10-23T01:06:15.431Z,18.08
2022-10-23T01:08:51.165Z,19.00
2022-10-23T01:14:39.588Z,17.50
2022-10-23T01:17:12.751Z,15.82
2022-10-23T01:20:21.155Z,16.45
2022-10-23T01:23:24.993Z,16.00
2022-10-23T01:26:23.922Z,13.30
2022-10-23T01:29:09.987Z,15.43
2022-10-23T01:31:44.964Z,17.33
2022-10-23T01:34:49.015Z,13.90
2022-10-23T01:37:27.033Z,15.02
2022-10-23T01:39:59.872Z,20.92
2022-10-23T01:42:38.135Z,14.35
2022-10-23T01:45:32.373Z,15.35
2022-10-23T01:48:01.981Z,19.88
2022-10-23T01:50:30.211Z,17.33
2022-10-23T01:52:57.335Z,17.02
2022-10-23T01:55:25.376Z,16.40
2022-10-23T01:57:53.570Z,16.98
2022-10-23T02:00:20.789Z,18.60
2022-10-23T02:02:49.982Z,19.65
2022-10-23T02:05:28.746Z,18.00
2022-10-23T02:07:56.719Z,16.95
2022-10-23T02:10:41.529Z,20.33
2022-10-23T02:13:44.541Z,18.27
2022-10-23T02:16:28.364Z,17.45
2022-10-23T02:19:03.788Z,19.83
2022-10-23T02:21:54.795Z,20.52
2022-10-23T02:24:38.303Z,19.35
2022-10-23T02:27:31.834Z,17.45
2022-10-23T02:30:05.981Z,22.08
2022-10-23T02:32:33.985Z,18.75
2022-10-23T02:35:01.052Z,20.27
2022-10-23T02:37:28.009Z,18.80
2022-10-23T02:39:54.764Z,19.02
2022-10-23T02:42:41.560Z,17.05
2022-10-23T02:45:20.262Z,17.25
2022-10-23T02:48:16.855Z,18.67
2022-10-23T02:53:33.995Z,15.00
2022-10-23T02:56:33.436Z,15.93
2022-10-23T02:59:22.649Z,17.30
2022-10-23T03:01:53.161Z,20.42
2022-10-23T03:04:23.775Z,18.45
2022-10-23T03:06:51.594Z,19.92
2022-10-23T03:09:18.553Z,20.25
2022-10-23T03:11:45.169Z,19.63
2022-10-23T03:14:13.415Z,21.42
2022-10-23T03:16:40.055Z,21.13
2022-10-23T03:19:06.688Z,21.48
2022-10-23T03:21:33.358Z,22.10
2022-10-23T03:24:00.161Z,20.20
2022-10-23T03:26:26.853Z,27.33
2022-10-23T03:28:53.496Z,19.55
2022-10-23T03:31:20.381Z,18.45
2022-10-23T03:33:46.991Z,21.52
2022-10-23T03:36:15.032Z,22.88
2022-10-23T03:38:41.672Z,22.00
2022-10-23T03:41:09.813Z,19.98
2022-10-23T03:43:36.417Z,17.42
2022-10-23T03:46:04.163Z,18.67
2022-10-23T03:48:30.799Z,17.58
2022-10-23T03:51:01.844Z,17.02
2022-10-23T03:53:32.218Z,20.25
2022-10-23T03:56:01.213Z,20.80
2022-10-23T03:58:29.940Z,18.27
2022-10-23T04:00:56.834Z,20.63
2022-10-23T04:03:23.661Z,22.10
2022-10-23T04:05:52.277Z,24.58
2022-10-23T04:08:20.262Z,19.98
2022-10-23T04:10:47.226Z,20.02
2022-10-23T04:13:13.838Z,21.40
2022-10-23T04:15:40.668Z,18.08
2022-10-23T04:18:07.284Z,18.00
2022-10-23T04:20:33.843Z,19.42
2022-10-23T04:23:03.281Z,23.15
2022-10-23T04:25:29.952Z,19.50
2022-10-23T04:27:56.558Z,21.33
2022-10-23T04:30:23.296Z,23.45
2022-10-23T04:32:52.943Z,21.30
2022-10-23T04:35:20.123Z,22.30
2022-10-23T04:37:47.732Z,21.92
2022-10-23T04:40:14.388Z,28.45
2022-10-23T04:42:41.303Z,23.75
2022-10-23T04:45:08.458Z,18.27
2022-10-23T04:47:35.151Z,20.95
2022-10-23T04:50:01.874Z,25.10
2022-10-23T04:52:28.566Z,23.30
2022-10-23T04:54:55.227Z,24.65
2022-10-23T04:57:21.847Z,28.75
2022-10-23T04:59:48.461Z,25.33
2022-10-23T05:02:15.088Z,24.83
2022-10-23T05:04:41.752Z,24.55
2022-10-23T05:07:09.444Z,22.63
2022-10-23T05:09:36.071Z,26.70
2022-10-23T05:12:04.004Z,22.25
2022-10-23T05:14:30.736Z,25.90
2022-10-23T05:17:02.745Z,24.88
2022-10-23T05:19:38.331Z,28.65
2022-10-23T05:22:06.846Z,24.65
2022-10-23T05:24:33.454Z,27.33
2022-10-23T05:27:01.417Z,24.48
2022-10-23T05:29:29.201Z,28.80
2022-10-23T05:32:01.773Z,23.45
2022-10-23T05:34:32.996Z,25.85
2022-10-23T05:37:05.960Z,28.58
2022-10-23T05:39:34.226Z,23.85
2022-10-23T05:42:00.838Z,26.10
2022-10-23T05:44:27.718Z,21.58
2022-10-23T05:46:55.727Z,24.25
2022-10-23T05:49:25.747Z,24.02
2022-10-23T05:51:53.998Z,24.17
2022-10-23T05:54:22.176Z,24.65
2022-10-23T05:56:49.646Z,26.77
2022-10-23T05:59:20.469Z,24.48
2022-10-23T06:01:49.738Z,25.73
2022-10-23T06:04:16.487Z,28.08
2022-10-23T06:06:46.377Z,26.65
2022-10-23T06:09:14.273Z,21.58
2022-10-23T06:11:42.295Z,24.45
2022-10-23T06:14:08.899Z,25.38
2022-10-23T06:16:36.181Z,25.58
2022-10-23T06:19:07.930Z,24.58
2022-10-23T06:21:40.163Z,26.58
2022-10-23T06:24:08.184Z,24.75
2022-10-23T06:26:34.807Z,25.42
2022-10-23T06:29:01.647Z,23.38
2022-10-23T06:31:30.431Z,26.73
2022-10-23T06:33:58.855Z,28.83
2022-10-23T06:36:26.197Z,29.92
2022-10-23T06:38:52.870Z,27.50
2022-10-23T06:41:21.868Z,26.23
2022-10-23T06:43:50.668Z,27.15
2022-10-23T06:46:18.615Z,25.00
2022-10-23T06:48:45.348Z,27.90
2022-10-23T06:51:13.815Z,25.67
2022-10-23T06:53:40.802Z,24.88
2022-10-23T06:56:08.879Z,27.92
2022-10-23T06:58:37.307Z,25.08
2022-10-23T07:01:07.704Z,22.80
2022-10-23T07:03:34.637Z,25.02
2022-10-23T07:06:02.613Z,24.40
2022-10-23T07:08:31.088Z,27.00
2022-10-23T07:10:57.965Z,23.45
2022-10-23T07:13:25.815Z,25.35
2022-10-23T07:15:53.599Z,29.30
2022-10-23T07:18:20.617Z,24.88
2022-10-23T07:20:48.457Z,23.90
2022-10-23T07:23:15.348Z,25.90
2022-10-23T07:25:45.616Z,21.63
2022-10-23T07:28:13.596Z,24.98
2022-10-23T07:30:42.264Z,26.33
2022-10-23T07:33:11.177Z,27.50
2022-10-23T07:35:40.027Z,20.45
2022-10-23T07:38:10.321Z,20.15
2022-10-23T07:40:37.361Z,21.40
2022-10-23T07:43:07.382Z,25.83
2022-10-23T07:45:34.045Z,20.42
2022-10-23T07:48:00.671Z,26.80
2022-10-23T07:50:27.297Z,24.17
2022-10-23T07:52:53.936Z,24.58
2022-10-23T07:55:20.779Z,23.52
2022-10-23T07:57:47.412Z,24.35
2022-10-23T08:00:14.213Z,22.73
2022-10-23T08:02:41.168Z,18.88
2022-10-23T08:05:09.401Z,23.55
2022-10-23T08:07:35.994Z,22.45
2022-10-23T08:10:02.898Z,18.05
2022-10-23T08:12:29.567Z,21.88
2022-10-23T08:14:56.165Z,23.35
2022-10-23T08:17:25.072Z,21.15
2022-10-23T08:19:54.305Z,21.08
2022-10-23T08:22:20.977Z,16.33
2022-10-23T08:24:47.679Z,19.83
2022-10-23T08:27:14.323Z,20.15
2022-10-23T08:29:42.055Z,20.30
2022-10-23T08:32:08.748Z,20.10
2022-10-23T08:34:35.417Z,19.73
2022-10-23T08:37:02.085Z,18.00
2022-10-23T08:39:28.679Z,24.50
2022-10-23T08:41:55.342Z,22.85
2022-10-23T08:44:21.890Z,22.15
2022-10-23T08:46:58.592Z,19.60
2022-10-23T08:49:44.056Z,17.88
2022-10-23T08:52:39.590Z,19.85
2022-10-23T08:55:35.206Z,23.55
2022-10-23T08:58:05.608Z,21.02
2022-10-23T09:00:33.025Z,21.65
2022-10-23T09:03:04.004Z,20.85
2022-10-23T09:05:35.919Z,17.98
2022-10-23T09:08:27.021Z,15.43
2022-10-23T09:11:48.057Z,14.70
2022-10-23T09:14:52.231Z,20.00
2022-10-23T09:17:29.337Z,14.85
2022-10-23T09:20:00.314Z,16.17
2022-10-23T09:22:28.695Z,15.63
2022-10-23T09:24:55.440Z,17.92
2022-10-23T09:27:22.346Z,19.02
2022-10-23T09:29:52.297Z,13.77
2022-10-23T09:32:19.571Z,13.25
2022-10-23T09:34:54.904Z,15.88
2022-10-23T09:37:28.286Z,14.88
2022-10-23T09:40:16.668Z,16.25
2022-10-23T09:42:58.907Z,16.52
2022-10-23T09:45:34.373Z,15.60
2022-10-23T09:48:17.893Z,19.35
2022-10-23T09:50:55.500Z,17.45
2022-10-23T09:53:40.689Z,14.20
2022-10-23T09:56:30.335Z,14.60
2022-10-23T09:59:04.555Z,14.30
2022-10-23T10:01:34.889Z,13.55
2022-10-23T10:04:02.220Z,15.55
2022-10-23T10:06:31.570Z,13.88
2022-10-23T10:09:06.556Z,14.05
2022-10-23T10:11:42.578Z,10.70
2022-10-23T10:14:30.775Z,11.13
2022-10-23T10:17:26.022Z,10.45
2022-10-23T10:20:06.769Z,10.77
2022-10-23T10:22:46.196Z,16.23
2022-10-23T10:25:42.395Z,10.88
2022-10-23T10:28:39.539Z,11.00
2022-10-23T10:31:38.580Z,9.45
2022-10-23T10:34:24.117Z,13.32
2022-10-23T10:37:18.314Z,12.20
2022-10-23T10:40:11.029Z,11.60
2022-10-23T10:43:02.296Z,10.95
2022-10-23T10:45:46.742Z,10.32
2022-10-23T10:48:41.109Z,11.05
2022-10-23T10:51:40.086Z,16.83
2022-10-23T10:54:39.741Z,11.48
2022-10-23T10:57:32.265Z,9.73
2022-10-23T11:00:04.140Z,11.65
2022-10-23T11:02:47.079Z,16.42
2022-10-23T11:05:32.195Z,11.07
2022-10-23T11:08:12.170Z,16.23
2022-10-23T11:10:43.367Z,11.93
2022-10-23T11:13:27.290Z,12.40
2022-10-23T11:16:00.219Z,14.10
2022-10-23T11:18:30.427Z,12.77
2022-10-23T11:21:40.466Z,12.75
2022-10-23T11:24:20.756Z,15.57
2022-10-23T11:26:54.642Z,12.43
2022-10-23T11:30:01.293Z,15.18
2022-10-23T11:33:01.636Z,10.48
2022-10-23T11:35:33.924Z,11.82
2022-10-23T11:38:15.767Z,9.48
2022-10-23T11:40:52.285Z,12.25
2022-10-23T11:43:46.466Z,9.80
2022-10-23T11:46:35.318Z,10.00
2022-10-23T11:49:05.319Z,10.85
2022-10-23T11:51:38.698Z,11.60
2022-10-23T11:54:26.729Z,10.60
2022-10-23T11:57:10.537Z,7.10
2022-10-23T12:00:19.744Z,12.93
2022-10-23T12:02:58.385Z,12.20
2022-10-23T12:05:34.122Z,9.32
2022-10-23T12:08:02.241Z,9.52
2022-10-23T12:10:43.479Z,14.88
2022-10-23T12:13:50.791Z,7.07
2022-10-23T12:16:17.360Z,13.05
2022-10-23T12:18:51.959Z,11.63
2022-10-23T12:21:24.089Z,9.05
2022-10-23T12:24:02.818Z,8.68
2022-10-23T12:26:47.473Z,13.27
2022-10-23T12:29:32.019Z,10.73
2022-10-23T12:32:26.033Z,12.70
2022-10-23T12:35:26.783Z,10.05
2022-10-23T12:38:14.858Z,13.57
2022-10-23T12:40:46.027Z,8.15
2022-10-23T12:43:30.185Z,10.38
2022-10-23T12:46:23.072Z,8.18
2022-10-23T12:48:55.313Z,10.07
2022-10-23T12:51:34.690Z,14.05
2022-10-23T12:54:03.603Z,9.35
2022-10-23T12:56:37.718Z,9.20
2022-10-23T12:59:36.180Z,7.15
2022-10-23T13:02:26.781Z,9.10
2022-10-23T13:05:03.054Z,13.48
2022-10-23T13:07:37.160Z,10.07
2022-10-23T13:10:05.959Z,14.32
2022-10-23T13:12:38.613Z,22.17
2022-10-23T13:15:11.143Z,10.40
2022-10-23T13:17:46.059Z,15.02
2022-10-23T13:20:18.718Z,13.40
2022-10-23T13:22:48.108Z,11.63
2022-10-23T13:25:26.407Z,14.00
2022-10-23T13:28:12.741Z,17.70
2022-10-23T13:30:42.378Z,13.15
2022-10-23T13:33:25.643Z,8.02
2022-10-23T13:36:00.579Z,9.93
2022-10-23T13:38:50.034Z,10.55
2022-10-23T13:41:19.566Z,10.85
2022-10-23T13:43:49.409Z,8.98
2022-10-23T13:46:20.063Z,10.02
2022-10-23T13:48:47.505Z,11.38
2022-10-23T13:51:23.444Z,11.18
2022-10-23T13:53:51.090Z,10.80
2022-10-23T13:56:20.040Z,9.95
2022-10-23T13:58:46.883Z,10.00
2022-10-23T14:01:38.278Z,9.50
2022-10-23T14:04:07.023Z,7.85
2022-10-23T14:06:34.722Z,9.30
2022-10-23T14:09:05.012Z,10.88
2022-10-23T14:11:34.505Z,10.48
2022-10-23T14:14:01.208Z,15.02
2022-10-23T14:16:27.869Z,10.00
2022-10-23T14:18:54.677Z,12.25
2022-10-23T14:21:22.961Z,8.68
2022-10-23T14:23:51.013Z,12.40
2022-10-23T14:26:20.834Z,9.93
2022-10-23T14:28:47.470Z,12.02
2022-10-23T14:31:18.197Z,8.52
2022-10-23T14:33:45.970Z,10.98
2022-10-23T14:36:13.069Z,11.65
2022-10-23T14:38:39.784Z,11.55
2022-10-23T14:41:14.513Z,9.57
2022-10-23T14:43:41.107Z,11.85
2022-10-23T14:46:13.166Z,11.68
2022-10-23T14:48:40.383Z,11.27
2022-10-23T14:51:17.523Z,10.95
2022-10-23T14:53:44.241Z,13.32
2022-10-23T14:56:10.944Z,10.93
2022-10-23T14:58:37.548Z,10.35
2022-10-23T15:01:04.483Z,11.27
2022-10-23T15:03:31.185Z,9.35
2022-10-23T15:05:58.786Z,8.35
2022-10-23T15:08:26.701Z,13.00
2022-10-23T15:10:53.418Z,9.75
2022-10-23T15:13:20.063Z,9.82
2022-10-23T15:15:46.673Z,11.70
2022-10-23T15:18:14.732Z,12.23
2022-10-23T15:20:42.531Z,14.40
2022-10-23T15:23:09.170Z,11.60
2022-10-23T15:25:35.787Z,9.70
2022-10-23T15:28:02.451Z,11.85
2022-10-23T15:30:29.109Z,11.57
2022-10-23T15:32:55.792Z,14.55
2022-10-23T15:35:22.447Z,13.55
2022-10-23T15:37:49.109Z,9.93
2022-10-23T15:40:15.751Z,10.73
2022-10-23T15:42:42.646Z,10.88
2022-10-23T15:45:11.769Z,9.95
2022-10-23T15:47:38.401Z,12.43
2022-10-23T15:50:05.998Z,11.20
2022-10-23T15:52:34.014Z,15.00
2022-10-23T15:55:01.884Z,13.70
2022-10-23T15:57:28.666Z,13.30
2022-10-23T15:59:55.644Z,11.35
2022-10-23T16:02:22.393Z,13.52
2022-10-23T16:04:49.178Z,19.67
2022-10-23T16:07:15.859Z,19.58
2022-10-23T16:09:42.876Z,17.17
2022-10-23T16:12:10.664Z,10.98
2022-10-23T16:14:38.386Z,21.75
2022-10-23T16:17:05.561Z,11.70
2022-10-23T16:19:34.274Z,16.58
2022-10-23T16:22:01.090Z,10.90
2022-10-23T16:24:37.428Z,13.38
2022-10-23T16:27:05.501Z,14.82
2022-10-23T16:29:34.388Z,12.02
2022-10-23T16:32:04.707Z,12.80
2022-10-23T16:34:34.715Z,16.42
2022-10-23T16:37:01.599Z,11.70
2022-10-23T16:39:39.802Z,10.68
2022-10-23T16:42:06.766Z,13.30
2022-10-23T16:44:33.518Z,13.02
2022-10-23T16:47:00.267Z,12.60
2022-10-23T16:49:26.964Z,11.90
2022-10-23T16:51:53.938Z,18.17
2022-10-23T16:54:20.724Z,11.70
2022-10-23T16:56:47.484Z,13.48
2022-10-23T16:59:14.237Z,12.75
2022-10-23T17:01:41.011Z,12.07
2022-10-23T17:04:09.082Z,14.27
2022-10-23T17:06:38.921Z,17.35
2022-10-23T17:09:07.428Z,12.73
2022-10-23T17:11:39.475Z,10.18
2022-10-23T17:14:13.818Z,17.40
2022-10-23T17:16:43.865Z,11.63
2022-10-23T17:19:20.683Z,11.43
2022-10-23T17:21:55.054Z,13.80
2022-10-23T17:24:23.143Z,13.60
2022-10-23T17:26:50.423Z,13.07
2022-10-23T17:29:17.997Z,14.02
2022-10-23T17:31:47.689Z,15.55
2022-10-23T17:34:17.136Z,13.38
2022-10-23T17:36:47.120Z,17.35
2022-10-23T17:39:18.276Z,17.92
2022-10-23T17:41:45.560Z,13.02
2022-10-23T17:44:12.455Z,19.92
2022-10-23T17:46:39.103Z,23.67
2022-10-23T17:49:07.567Z,19.48
2022-10-23T17:51:36.199Z,21.45
2022-10-23T17:54:07.106Z,17.95
2022-10-23T17:56:37.429Z,19.90
2022-10-23T17:59:11.865Z,15.82
2022-10-23T18:01:39.094Z,14.43
2022-10-23T18:04:07.289Z,12.80
2022-10-23T18:06:40.624Z,14.82
2022-10-23T18:09:08.851Z,13.88
2022-10-23T18:11:41.440Z,12.43
2022-10-23T18:14:10.556Z,10.93
2022-10-23T18:16:38.492Z,14.60
2022-10-23T18:19:06.440Z,12.38
2022-10-23T18:21:33.367Z,12.95
2022-10-23T18:24:01.405Z,14.70
2022-10-23T18:26:30.818Z,14.32
2022-10-23T18:28:59.451Z,10.93
2022-10-23T18:31:28.114Z,15.27
2022-10-23T18:34:04.813Z,14.43
2022-10-23T18:36:35.252Z,16.02
2022-10-23T18:39:05.783Z,11.93
2022-10-23T18:41:34.047Z,16.77
2022-10-23T18:44:00.927Z,15.00
2022-10-23T18:46:28.014Z,15.07
2022-10-23T18:48:54.680Z,12.55
2022-10-23T18:51:27.303Z,11.68
2022-10-23T18:53:54.471Z,14.32
2022-10-23T18:56:23.341Z,17.25
2022-10-23T18:58:51.414Z,13.85
2022-10-23T19:01:19.420Z,14.23
2022-10-23T19:03:46.490Z,16.88
2022-10-23T19:06:13.765Z,9.88
2022-10-23T19:08:43.520Z,11.93
2022-10-23T19:11:11.957Z,10.50
2022-10-23T19:13:39.602Z,13.98
2022-10-23T19:16:23.981Z,12.68
2022-10-23T19:18:55.335Z,14.18
2022-10-23T19:21:26.014Z,12.50
2022-10-23T19:23:53.726Z,12.48
2022-10-23T19:26:20.425Z,11.35
2022-10-23T19:28:48.536Z,12.23
2022-10-23T19:31:15.439Z,12.13
2022-10-23T19:33:42.025Z,10.85
2022-10-23T19:36:13.843Z,12.38
2022-10-23T19:38:41.792Z,10.70
2022-10-23T19:41:08.696Z,13.43
2022-10-23T19:43:35.737Z,9.98
2022-10-23T19:46:06.295Z,11.25
2022-10-23T19:48:36.028Z,12.20
2022-10-23T19:51:02.693Z,11.02
2022-10-23T19:53:29.505Z,17.30
2022-10-23T19:56:03.667Z,8.95
2022-10-23T19:58:30.304Z,10.73
2022-10-23T20:00:56.977Z,11.57
2022-10-23T20:03:27.263Z,12.90
2022-10-23T20:05:54.220Z,16.20
2022-10-23T20:08:20.884Z,13.93
2022-10-23T20:10:47.558Z,12.85
2022-10-23T20:13:19.906Z,10.95
2022-10-23T20:15:47.125Z,14.38
2022-10-23T20:18:13.783Z,11.75
2022-10-23T20:20:43.203Z,12.70
2022-10-23T20:23:09.903Z,16.73
2022-10-23T20:25:36.928Z,17.75
2022-10-23T20:28:04.030Z,11.93
2022-10-23T20:30:30.684Z,11.80
2022-10-23T20:32:57.591Z,12.15
2022-10-23T20:35:24.471Z,13.68
2022-10-23T20:37:51.072Z,13.75
2022-10-23T20:40:17.755Z,11.57
2022-10-23T20:42:44.398Z,12.45
2022-10-23T20:45:11.248Z,12.18
2022-10-23T20:47:37.991Z,13.50
2022-10-23T20:50:06.153Z,14.82
2022-10-23T20:52:34.072Z,15.02
2022-10-23T20:55:01.973Z,10.40
2022-10-23T20:57:29.406Z,14.27
2022-10-23T20:59:57.393Z,13.93
2022-10-23T21:02:24.132Z,16.73
2022-10-23T21:04:54.457Z,16.80
2022-10-23T21:07:23.624Z,8.88
2022-10-23T21:09:52.286Z,13.52
2022-10-23T21:12:18.925Z,13.00
2022-10-23T21:14:45.545Z,10.65
2022-10-23T21:17:12.170Z,13.77
2022-10-23T21:19:39.214Z,11.70
2022-10-23T21:22:05.803Z,16.55
2022-10-23T21:24:32.465Z,13.98
2022-10-23T21:26:59.092Z,10.38
2022-10-23T21:29:25.737Z,16.88
2022-10-23T21:31:54.330Z,13.70
2022-10-23T21:34:21.431Z,15.65
2022-10-23T21:37:11.399Z,16.10
2022-10-23T21:39:34.728Z,16.05
2022-10-23T21:42:01.384Z,11.55
2022-10-23T21:44:28.037Z,15.23
2022-10-23T21:46:54.700Z,12.88
2022-10-23T21:49:21.320Z,16.05
2022-10-23T21:51:47.961Z,14.05
2022-10-23T21:54:14.809Z,11.60
2022-10-23T21:56:47.344Z,15.60
2022-10-23T21:59:16.783Z,13.45
2022-10-23T22:01:45.893Z,14.68
2022-10-23T22:04:15.647Z,13.68
2022-10-23T22:06:43.437Z,12.90
2022-10-23T22:09:16.490Z,13.43
2022-10-23T22:11:43.236Z,14.63
2022-10-23T22:14:09.914Z,14.10
2022-10-23T22:16:37.667Z,14.30
2022-10-23T22:19:04.285Z,10.73
2022-10-23T22:21:31.364Z,12.60
2022-10-23T22:24:00.253Z,12.45
2022-10-23T22:26:39.163Z,14.27
2022-10-23T22:29:09.823Z,15.23
2022-10-23T22:31:43.001Z,15.32
2022-10-23T22:36:59.704Z,14.35
2022-10-23T22:39:27.877Z,13.63
2022-10-23T22:41:54.468Z,13.48
2022-10-23T22:44:21.122Z,14.07
2022-10-23T22:46:47.808Z,12.27
2022-10-23T22:49:14.644Z,18.95
2022-10-23T22:51:41.317Z,13.27
2022-10-23T22:54:08.673Z,15.70
2022-10-23T22:56:35.414Z,11.38
2022-10-23T22:59:04.411Z,17.38
2022-10-23T23:01:38.695Z,14.55
2022-10-23T23:04:14.017Z,15.05
2022-10-23T23:06:52.731Z,14.18
2022-10-23T23:09:20.929Z,19.65
2022-10-23T23:11:52.500Z,16.85
2022-10-23T23:14:23.684Z,15.45
2022-10-23T23:16:53.436Z,14.95
2022-10-23T23:19:20.344Z,23.52
2022-10-23T23:21:48.221Z,15.18
2022-10-23T23:24:15.184Z,18.88
2022-10-23T23:26:41.789Z,18.58
2022-10-23T23:29:08.471Z,18.60
2022-10-23T23:31:35.091Z,18.90
2022-10-23T23:34:01.732Z,19.02
2022-10-23T23:36:28.403Z,38.72
2022-10-23T23:38:57.040Z,18.90
2022-10-23T23:41:24.746Z,19.83
2022-10-23T23:43:54.402Z,19.08
2022-10-23T23:46:21.410Z,19.50
2022-10-23T23:48:48.278Z,18.38
2022-10-23T23:51:20.289Z,17.75
2022-10-23T23:53:47.894Z,21.75
2022-10-23T23:56:15.232Z,20.05
2022-10-23T23:58:41.937Z,18.10
